Time;durP1;ratioP1;P1;durP2;ratioP2;P2;SDS_P1;SDS_P2;PMS_P1;PMS_P2;Temp;Humidity;BMP_temperature;BMP_pressure;BME280_temperature;BME280_humidity;BME280_pressure;Samples;Min_cycle;Max_cycle;Signal;HPM_P1;HPM_P2
2023/03/20 00:01:04;;;;;;;5.45;5.05;;;;;;;8.14;100.00;101454.31;5922010;24;20060;-75
2023/03/20 00:03:54;;;;;;;6.72;5.95;;;;;;;7.62;100.00;101356.50;5943903;24;20068;-74
2023/03/20 00:06:46;;;;;;;6.35;5.95;;;;;;;8.09;100.00;101443.13;5973333;23;20140;-75
2023/03/20 00:09:24;;;;;;;5.72;4.68;;;;;;;7.81;100.00;101396.03;6001999;23;20023;-74
2023/03/20 00:11:56;;;;;;;7.78;7.00;;;;;;;8.15;100.00;101458.63;6031046;23;20459;-75
2023/03/20 00:14:43;;;;;;;6.82;6.10;;;;;;;7.70;100.00;101391.13;5992898;23;20062;-75
2023/03/20 00:17:23;;;;;;;5.95;5.10;;;;;;;4.50;100.00;100844.66;6023937;23;20258;-74
2023/03/20 00:20:15;;;;;;;5.35;5.03;;;;;;;8.20;100.00;101464.59;6002702;23;20034;-74
2023/03/20 00:22:43;;;;;;;6.90;6.32;;;;;;;8.16;100.00;101481.25;6008021;23;20219;-74
2023/03/20 00:25:25;;;;;;;7.15;6.00;;;;;;;8.17;100.00;101473.34;6000960;23;20364;-74
2023/03/20 00:27:52;;;;;;;6.13;5.63;;;;;;;7.78;100.00;101412.66;6003962;23;20079;-75
2023/03/20 00:30:33;;;;;;;7.00;6.35;;;;;;;8.12;100.00;101477.03;6007534;23;20015;-75
2023/03/20 00:33:01;;;;;;;7.85;6.30;;;;;;;7.54;100.00;101380.28;5980706;23;20470;-75
2023/03/20 00:35:32;;;;;;;9.10;6.78;;;;;;;8.13;100.00;101474.34;5985541;23;20034;-76
2023/03/20 00:37:59;;;;;;;6.57;6.00;;;;;;;8.10;100.00;101476.22;6007307;23;20091;-74
2023/03/20 00:40:30;;;;;;;6.85;6.20;;;;;;;8.04;100.00;101498.16;6002305;23;20028;-76
2023/03/20 00:43:03;;;;;;;6.82;6.25;;;;;;;7.90;100.00;101471.56;5980978;23;20031;-75
2023/03/20 00:45:40;;;;;;;6.82;5.72;;;;;;;4.29;100.00;100872.84;6035083;23;20739;-74
2023/03/20 00:48:16;;;;;;;11.88;6.22;;;;;;;7.96;100.00;101479.22;6005950;23;20041;-74
2023/03/20 00:50:53;;;;;;;9.15;7.93;;;;;;;7.17;100.00;101342.13;6005702;23;20071;-76
2023/03/20 00:53:23;;;;;;;5.65;5.25;;;;;;;7.69;100.00;101423.38;6000589;23;20411;-75
2023/03/20 00:55:59;;;;;;;8.02;6.40;;;;;;;7.11;100.00;101329.25;6030320;23;20031;-74
2023/03/20 00:58:55;;;;;;;6.93;6.20;;;;;;;8.01;100.00;101476.47;6008062;23;20047;-76
2023/03/20 01:01:34;;;;;;;10.50;8.10;;;;;;;7.57;100.00;101394.06;6028649;23;20046;-75
2023/03/20 01:04:13;;;;;;;9.85;6.43;;;;;;;7.99;100.00;101474.75;6012111;23;20223;-75
2023/03/20 01:06:44;;;;;;;6.25;5.68;;;;;;;7.97;100.00;101462.63;6002272;23;20090;-75
2023/03/20 01:09:15;;;;;;;9.35;6.85;;;;;;;7.89;100.00;101452.41;5978138;23;20231;-74
2023/03/20 01:11:47;;;;;;;8.07;6.88;;;;;;;7.37;100.00;101380.72;6013738;23;20031;-75
2023/03/20 01:14:31;;;;;;;6.90;6.28;;;;;;;1.95;100.00;100473.44;5979822;23;20608;-74
2023/03/20 01:17:00;;;;;;;7.35;6.60;;;;;;;6.18;100.00;101184.81;6024187;23;20022;-77
2023/03/20 01:19:43;;;;;;;7.72;6.57;;;;;;;7.10;100.00;101390.19;6011004;23;20033;-75
2023/03/20 01:22:13;;;;;;;7.20;6.68;;;;;;;4.91;100.00;100988.34;6007707;23;20087;-75
2023/03/20 01:24:40;;;;;;;8.00;6.53;;;;;;;7.75;100.00;101459.78;6002839;23;20046;-73
2023/03/20 01:27:19;;;;;;;12.00;8.32;;;;;;;7.74;100.00;101461.53;5992018;23;20047;-74
2023/03/20 01:29:50;;;;;;;8.43;7.15;;;;;;;1.94;100.00;100572.66;6000522;23;20427;-74
2023/03/20 01:32:18;;;;;;;5.93;5.43;;;;;;;6.68;100.00;101288.66;6026620;23;20022;-74
2023/03/20 01:34:55;;;;;;;7.65;6.95;;;;;;;7.56;100.00;101447.22;5979162;23;20163;-76
2023/03/20 01:37:26;;;;;;;7.25;6.63;;;;;;;7.50;100.00;101459.63;5977171;23;20041;-75
2023/03/20 01:39:59;;;;;;;14.48;6.15;;;;;;;5.60;100.00;101130.66;6026240;23;20081;-74
2023/03/20 01:42:29;;;;;;;6.53;6.03;;;;;;;5.09;100.00;101052.97;6000425;23;20560;-75
2023/03/20 01:45:00;;;;;;;7.13;6.25;;;;;;;7.37;100.00;101439.03;5981676;23;20031;-75
2023/03/20 01:47:30;;;;;;;8.52;6.25;;;;;;;4.67;100.00;100994.97;6013455;23;20051;-75
2023/03/20 01:50:01;;;;;;;6.63;6.10;;;;;;;7.33;100.00;101442.63;5982920;23;20039;-74
2023/03/20 01:52:38;;;;;;;11.93;6.95;;;;;;;3.98;100.00;100881.31;6025447;23;20939;-74
2023/03/20 01:55:05;;;;;;;8.73;6.20;;;;;;;2.51;100.00;100674.31;5982401;23;20027;-74
2023/03/20 01:57:32;;;;;;;9.52;6.45;;;;;;;6.64;100.00;101334.84;6099822;18;20100;-75
2023/03/20 02:00:09;;;;;;;6.93;6.40;;;;;;;7.24;100.00;101447.25;6064955;23;20081;-75
2023/03/20 02:02:38;;;;;;;7.32;6.65;;;;;;;7.03;100.00;101431.22;6048418;23;20030;-76
2023/03/20 02:05:10;;;;;;;8.43;6.03;;;;;;;6.83;100.00;101415.22;6062681;23;20034;-75
2023/03/20 02:07:38;;;;;;;12.40;8.90;;;;;;;7.03;100.00;101449.50;6051163;23;20074;-75
2023/03/20 02:10:08;;;;;;;6.88;6.38;;;;;;;6.79;100.00;101432.69;6025583;23;20037;-75
2023/03/20 02:12:36;;;;;;;8.40;6.22;;;;;;;6.16;100.00;101346.41;6048061;23;20406;-75
2023/03/20 02:15:05;;;;;;;11.02;6.32;;;;;;;6.56;100.00;101413.25;6062680;23;20032;-75
2023/03/20 02:17:32;;;;;;;7.03;5.68;;;;;;;6.74;100.00;101458.06;6054467;23;20022;-74
2023/03/20 02:20:13;;;;;;;6.60;6.05;;;;;;;6.70;100.00;101466.84;6060463;23;20037;-75
2023/03/20 02:23:17;;;;;;;8.00;7.05;;;;;;;6.63;100.00;101465.28;6049604;23;20054;-75
2023/03/20 02:26:08;;;;;;;7.57;6.40;;;;;;;6.53;100.00;101448.97;6063939;23;20084;-76
2023/03/20 02:28:52;;;;;;;8.98;7.30;;;;;;;6.22;100.00;101405.38;6053900;23;20034;-76
2023/03/20 02:31:41;;;;;;;9.43;6.03;;;;;;;6.25;100.00;101433.97;6062316;23;20021;-73
2023/03/20 02:34:18;;;;;;;8.88;6.57;;;;;;;6.15;100.00;101412.47;6022460;23;20034;-77
2023/03/20 02:37:14;;;;;;;8.55;7.35;;;;;;;6.04;100.00;101401.44;6063369;23;20030;-76
2023/03/20 02:39:54;;;;;;;7.88;6.75;;;;;;;5.69;100.00;101347.44;6052821;23;20067;-73
2023/03/20 02:42:44;;;;;;;7.57;6.78;;;;;;;6.35;100.00;101448.53;6025441;23;20019;-76
2023/03/20 02:45:26;;;;;;;8.05;6.70;;;;;;;6.18;100.00;101406.34;6053178;23;20027;-75
2023/03/20 02:48:12;;;;;;;7.20;6.45;;;;;;;5.99;100.00;101396.31;6023145;23;20642;-73
2023/03/20 02:50:48;;;;;;;7.75;6.30;;;;;;;5.14;100.00;101261.81;6055186;23;20366;-75
2023/03/20 02:53:38;;;;;;;8.23;7.20;;;;;;;6.04;100.00;101416.22;6050810;23;20030;-75
2023/03/20 02:56:22;;;;;;;7.43;6.68;;;;;;;6.39;100.00;101475.38;6026913;23;20136;-76
2023/03/20 02:58:59;;;;;;;5.93;5.43;;;;;;;6.46;100.00;101478.72;6041232;23;20029;-76
2023/03/20 03:01:28;;;;;;;10.27;7.07;;;;;;;5.73;100.00;101356.91;6051869;23;20018;-75
2023/03/20 03:04:01;;;;;;;7.35;6.60;;;;;;;6.51;100.00;101474.22;6057348;23;20034;-75
2023/03/20 03:06:31;;;;;;;6.40;5.90;;;;;;;6.15;100.00;101427.25;6051051;23;20025;-75
2023/03/20 03:09:03;;;;;;;9.80;7.38;;;;;;;6.49;100.00;101479.47;6057866;23;20659;-76
2023/03/20 03:11:35;;;;;;;11.02;6.35;;;;;;;5.93;100.00;101386.00;6054483;23;20027;-74
2023/03/20 03:14:03;;;;;;;7.72;6.95;;;;;;;6.44;100.00;101462.25;6063219;23;20435;-74
2023/03/20 03:16:35;;;;;;;6.22;5.63;;;;;;;6.21;100.00;101421.03;6056864;23;20045;-75
2023/03/20 03:19:08;;;;;;;7.07;6.47;;;;;;;6.56;100.00;101478.44;6027364;23;20037;-75
2023/03/20 03:21:37;;;;;;;6.45;5.88;;;;;;;6.08;100.00;101377.00;6056004;23;20022;-75
2023/03/20 03:24:03;;;;;;;8.13;6.75;;;;;;;6.47;100.00;101447.38;6060800;23;20542;-73
2023/03/20 03:26:35;;;;;;;7.05;6.38;;;;;;;6.21;100.00;101393.22;6055371;23;20034;-73
2023/03/20 03:29:08;;;;;;;6.10;5.63;;;;;;;4.74;100.00;101135.22;6060749;23;20022;-74
2023/03/20 03:31:36;;;;;;;9.15;8.15;;;;;;;6.45;100.00;101437.88;6048082;23;20042;-74
2023/03/20 03:34:03;;;;;;;10.32;7.07;;;;;;;6.12;100.00;101401.25;6060754;23;20102;-76
2023/03/20 03:36:42;;;;;;;8.18;7.38;;;;;;;6.21;100.00;101428.84;6056439;23;20029;-77
2023/03/20 03:39:32;;;;;;;9.88;6.38;;;;;;;6.36;100.00;101463.25;6058771;23;20096;-76
2023/03/20 03:42:26;;;;;;;10.00;8.90;;;;;;;5.74;100.00;101366.44;6028859;23;20084;-75
2023/03/20 03:45:12;;;;;;;7.63;6.90;;;;;;;5.96;100.00;101405.94;6065329;23;20464;-76
2023/03/20 03:47:49;;;;;;;10.35;8.35;;;;;;;6.18;100.00;101454.09;6051794;23;20093;-75
2023/03/20 03:50:25;;;;;;;13.75;8.00;;;;;;;6.50;100.00;101481.22;6037988;23;20172;-76
2023/03/20 03:52:57;;;;;;;7.40;6.63;;;;;;;6.46;100.00;101474.34;6049237;23;20034;-77
2023/03/20 03:55:26;;;;;;;8.25;6.38;;;;;;;6.31;100.00;101461.66;6002181;23;20027;-75
2023/03/20 03:58:00;;;;;;;8.27;6.47;;;;;;;6.50;100.00;101485.56;6051835;23;20094;-76
2023/03/20 04:00:27;;;;;;;12.70;6.72;;;;;;;5.74;100.00;101345.63;6026510;23;20030;-76
2023/03/20 04:02:56;;;;;;;6.70;6.05;;;;;;;6.52;100.00;101478.56;6038786;23;20633;-76
2023/03/20 04:05:28;;;;;;;7.78;6.18;;;;;;;6.05;100.00;101390.09;6053586;23;20026;-76
2023/03/20 04:07:57;;;;;;;7.03;6.30;;;;;;;6.51;100.00;101454.22;6026546;23;20014;-77
2023/03/20 04:10:24;;;;;;;9.68;7.65;;;;;;;6.12;100.00;101396.06;6056031;23;20060;-77
2023/03/20 04:12:51;;;;;;;7.97;6.22;;;;;;;6.22;100.00;101414.94;6049271;23;20030;-77
2023/03/20 04:15:19;;;;;;;8.00;6.40;;;;;;;6.34;100.00;101435.53;6067047;23;20034;-77
2023/03/20 04:17:45;;;;;;;6.22;5.45;;;;;;;6.56;100.00;101469.78;6057525;23;20386;-76
2023/03/20 04:20:12;;;;;;;10.95;7.00;;;;;;;6.56;100.00;101461.97;6064565;23;20033;-76
2023/03/20 04:22:39;;;;;;;6.40;5.80;;;;;;;4.91;100.00;101188.59;6054021;23;20046;-76
2023/03/20 04:25:08;;;;;;;15.65;7.10;;;;;;;6.09;100.00;101396.09;6062290;23;20030;-77
2023/03/20 04:27:35;;;;;;;13.93;7.85;;;;;;;6.49;100.00;101468.19;6055168;23;20037;-76
2023/03/20 04:30:01;;;;;;;6.85;6.35;;;;;;;5.89;100.00;101368.69;6063500;23;20017;-76
2023/03/20 04:32:28;;;;;;;7.63;6.00;;;;;;;5.84;100.00;101356.69;6028734;23;20033;-76
2023/03/20 04:34:54;;;;;;;12.82;6.63;;;;;;;5.92;100.00;101383.44;6064574;23;20105;-76
2023/03/20 04:37:20;;;;;;;8.73;5.95;;;;;;;5.85;100.00;101374.03;6048422;23;20031;-75
2023/03/20 04:39:47;;;;;;;6.13;5.60;;;;;;;6.19;100.00;101429.75;6062062;23;20025;-77
2023/03/20 04:42:13;;;;;;;7.30;6.50;;;;;;;5.81;100.00;101375.81;6052631;23;20101;-76
2023/03/20 04:44:40;;;;;;;5.95;5.20;;;;;;;6.07;100.00;101418.72;6062003;23;20018;-76
2023/03/20 04:47:06;;;;;;;10.57;7.32;;;;;;;6.12;100.00;101445.56;6056159;23;20473;-75
2023/03/20 04:49:33;;;;;;;8.23;6.65;;;;;;;6.27;100.00;101460.00;6063282;23;20375;-74
2023/03/20 04:51:59;;;;;;;9.00;6.97;;;;;;;5.05;100.00;101261.16;6052809;23;20054;-75
2023/03/20 04:54:26;;;;;;;6.63;5.97;;;;;;;6.18;100.00;101468.88;6064778;23;20034;-76
2023/03/20 04:56:52;;;;;;;8.38;5.70;;;;;;;5.91;100.00;101416.44;6025750;23;20501;-76
2023/03/20 04:59:19;;;;;;;10.48;6.88;;;;;;;6.19;100.00;101467.97;6064770;23;20219;-76
2023/03/20 05:01:45;;;;;;;6.63;5.93;;;;;;;5.68;100.00;101379.59;6054135;23;20741;-76
2023/03/20 05:04:12;;;;;;;12.30;9.02;;;;;;;5.68;100.00;101375.25;6060393;23;20045;-74
2023/03/20 05:06:39;;;;;;;7.35;6.68;;;;;;;6.15;100.00;101453.28;6053991;23;20571;-74
2023/03/20 05:09:05;;;;;;;7.55;6.20;;;;;;;5.47;100.00;101341.84;6062061;23;20029;-74
2023/03/20 05:11:32;;;;;;;5.57;5.07;;;;;;;5.90;100.00;101413.88;6050516;23;20089;-74
2023/03/20 05:13:58;;;;;;;6.65;5.82;;;;;;;6.11;100.00;101460.31;6039289;23;20030;-74
2023/03/20 05:16:25;;;;;;;9.93;6.90;;;;;;;5.60;100.00;101378.00;6049841;23;20625;-76
2023/03/20 05:18:51;;;;;;;8.35;6.35;;;;;;;5.73;100.00;101409.00;6061541;23;20037;-74
2023/03/20 05:21:18;;;;;;;6.88;5.72;;;;;;;4.42;100.00;101187.84;6053205;23;20045;-75
2023/03/20 05:23:44;;;;;;;10.00;6.43;;;;;;;5.87;100.00;101427.78;6062791;23;20792;-75
2023/03/20 05:26:11;;;;;;;10.52;7.50;;;;;;;4.98;100.00;101276.88;6051786;23;20041;-75
2023/03/20 05:28:37;;;;;;;9.50;6.03;;;;;;;5.10;100.00;101307.00;6024461;23;20046;-76
2023/03/20 05:31:04;;;;;;;7.03;6.40;;;;;;;4.89;100.00;101266.69;6049600;23;20038;-75
2023/03/20 05:33:30;;;;;;;10.93;6.97;;;;;;;4.77;100.00;101254.75;6063980;23;20026;-75
2023/03/20 05:35:57;;;;;;;7.60;6.85;;;;;;;5.34;100.00;101347.28;6022991;23;20026;-75
2023/03/20 05:38:24;;;;;;;10.43;6.22;;;;;;;5.85;100.00;101426.13;6070862;23;20014;-74
2023/03/20 05:41:00;;;;;;;12.68;6.53;;;;;;;5.82;100.00;101416.63;6050860;23;20959;-75
2023/03/20 05:43:27;;;;;;;12.60;6.30;;;;;;;5.88;100.00;101432.13;6066084;23;20029;-75
2023/03/20 05:45:55;;;;;;;6.93;6.25;;;;;;;5.98;100.00;101461.50;6055136;23;20429;-76
2023/03/20 05:48:22;;;;;;;7.13;6.53;;;;;;;5.83;100.00;101439.16;6062490;23;20029;-75
2023/03/20 05:50:48;;;;;;;7.65;6.95;;;;;;;5.44;100.00;101360.13;6052591;23;20038;-74
2023/03/20 05:53:15;;;;;;;7.43;6.82;;;;;;;5.99;100.00;101452.75;6037285;23;20093;-75
2023/03/20 05:55:43;;;;;;;10.38;7.25;;;;;;;5.85;100.00;101440.00;6054869;23;20030;-76
2023/03/20 05:58:10;;;;;;;8.45;6.45;;;;;;;6.03;100.00;101474.41;6054341;23;20048;-72
2023/03/20 06:00:38;;;;;;;9.50;6.47;;;;;;;5.76;100.00;101424.56;6053869;23;20092;-73
2023/03/20 06:03:08;;;;;;;6.28;5.68;;;;;;;6.08;100.00;101469.97;6060460;23;20033;-74
2023/03/20 06:05:35;;;;;;;10.88;8.02;;;;;;;6.09;100.00;101464.72;6052395;23;20485;-71
2023/03/20 06:08:03;;;;;;;7.68;6.85;;;;;;;5.83;100.00;101420.09;6064491;23;20097;-71
2023/03/20 06:10:29;;;;;;;7.97;7.15;;;;;;;5.94;100.00;101432.00;6026824;23;20441;-70
2023/03/20 06:12:59;;;;;;;5.70;5.30;;;;;;;6.20;100.00;101464.50;6063904;23;20100;-70
2023/03/20 06:15:29;;;;;;;7.07;6.05;;;;;;;6.11;100.00;101455.09;6052037;23;20496;-71
2023/03/20 06:17:55;;;;;;;6.63;6.05;;;;;;;6.29;100.00;101476.47;6066200;23;20029;-71
2023/03/20 06:20:22;;;;;;;7.50;6.78;;;;;;;6.35;100.00;101476.31;6045106;23;20050;-70
2023/03/20 06:22:48;;;;;;;11.65;7.13;;;;;;;6.19;100.00;101431.50;6022786;23;20022;-70
2023/03/20 06:25:15;;;;;;;15.77;7.65;;;;;;;6.47;100.00;101470.84;6021037;23;20031;-71
2023/03/20 06:27:41;;;;;;;11.13;7.32;;;;;;;6.20;100.00;101417.59;6052100;23;20049;-72
2023/03/20 06:30:09;;;;;;;9.52;7.75;;;;;;;6.01;100.00;101385.84;6064042;23;20060;-72
2023/03/20 06:32:35;;;;;;;8.93;6.50;;;;;;;6.47;100.00;101449.13;6053787;23;20101;-72
2023/03/20 06:35:04;;;;;;;8.13;6.97;;;;;;;6.53;100.00;101446.38;6048577;23;20014;-71
2023/03/20 06:37:31;;;;;;;8.77;6.72;;;;;;;6.71;100.00;101471.16;6061922;23;20024;-71
2023/03/20 06:39:57;;;;;;;9.80;6.38;;;;;;;6.75;100.00;101476.25;6022228;23;20053;-72
2023/03/20 06:42:24;;;;;;;10.13;6.85;;;;;;;5.99;100.00;101343.34;6057025;23;20030;-71
2023/03/20 06:44:50;;;;;;;10.52;6.85;;;;;;;6.11;100.00;101363.91;6055563;23;20034;-72
2023/03/20 06:47:17;;;;;;;8.07;7.30;;;;;;;6.08;100.00;101343.13;6058478;23;20403;-70
2023/03/20 06:49:43;;;;;;;8.95;7.80;;;;;;;6.84;100.00;101469.97;6048596;23;20035;-71
2023/03/20 06:52:16;;;;;;;10.35;7.18;;;;;;;6.40;100.00;101396.28;6035993;23;20036;-71
2023/03/20 06:54:43;;;;;;;7.32;6.63;;;;;;;6.82;100.00;101447.44;6071736;23;20139;-71
2023/03/20 06:57:10;;;;;;;8.18;7.38;;;;;;;7.00;100.00;101486.13;6031612;23;20030;-70
2023/03/20 06:59:39;;;;;;;9.73;7.30;;;;;;;6.99;100.00;101485.25;6036023;23;20137;-71
2023/03/20 07:02:07;;;;;;;10.07;7.00;;;;;;;7.14;100.00;101498.84;6072981;23;20022;-71
2023/03/20 07:04:33;;;;;;;12.27;6.63;;;;;;;6.96;100.00;101484.50;6060412;23;20022;-71
2023/03/20 07:07:00;;;;;;;7.03;5.68;;;;;;;7.17;100.00;101509.19;6043862;23;20120;-70
2023/03/20 07:09:27;;;;;;;6.80;6.10;;;;;;;7.21;100.00;101491.69;6065197;23;21372;-73
2023/03/20 07:11:53;;;;;;;7.10;5.90;;;;;;;7.22;100.00;101491.66;6081301;23;20022;-73
2023/03/20 07:14:20;;;;;;;8.13;7.32;;;;;;;7.46;100.00;101513.69;6061135;23;20053;-72
2023/03/20 07:16:46;;;;;;;8.38;7.10;;;;;;;7.41;100.00;101517.28;6074166;23;20017;-71
2023/03/20 07:19:13;;;;;;;6.80;6.25;;;;;;;7.52;100.00;101521.34;6062875;23;20092;-71
2023/03/20 07:21:39;;;;;;;8.45;6.20;;;;;;;7.37;100.00;101499.09;6071320;23;20026;-70
2023/03/20 07:24:06;;;;;;;7.78;7.03;;;;;;;7.36;100.00;101501.75;6062825;23;20032;-72
2023/03/20 07:26:32;;;;;;;6.15;5.57;;;;;;;7.61;100.00;101532.44;6069345;23;20021;-71
2023/03/20 07:28:59;;;;;;;11.05;7.00;;;;;;;6.72;100.00;101371.16;6060940;23;20030;-72
2023/03/20 07:31:28;;;;;;;7.50;6.57;;;;;;;7.72;100.00;101533.03;6069445;23;20030;-73
2023/03/20 07:33:55;;;;;;;9.88;7.15;;;;;;;7.78;100.00;101532.88;6035329;23;20058;-69
2023/03/20 07:36:21;;;;;;;5.88;5.40;;;;;;;7.64;100.00;101525.41;6031054;23;20640;-73
2023/03/20 07:38:47;;;;;;;11.55;6.43;;;;;;;7.69;100.00;101517.44;6056362;23;20034;-72
2023/03/20 07:41:14;;;;;;;6.70;6.10;;;;;;;7.76;100.00;101525.06;6071394;23;20107;-71
2023/03/20 07:43:40;;;;;;;7.00;6.20;;;;;;;7.68;100.00;101498.28;6058606;23;20091;-70
2023/03/20 07:46:10;;;;;;;7.13;5.85;;;;;;;7.93;100.00;101514.13;6034221;23;20150;-72
2023/03/20 07:48:36;;;;;;;8.00;5.75;;;;;;;7.98;100.00;101525.31;6006852;23;20042;-74
2023/03/20 07:51:03;;;;;;;7.95;6.70;;;;;;;7.82;100.00;101495.28;6064337;23;20033;-72
2023/03/20 07:53:29;;;;;;;6.45;5.28;;;;;;;8.03;100.00;101495.59;6034734;23;20026;-70
2023/03/20 07:55:55;;;;;;;5.97;5.43;;;;;;;8.41;100.00;101523.25;6052386;23;20014;-72
2023/03/20 07:58:22;;;;;;;6.22;5.63;;;;;;;8.39;100.00;101519.78;6027862;23;20034;-71
2023/03/20 08:00:48;;;;;;;9.00;5.97;;;;;;;8.54;100.00;101511.53;6068747;23;20054;-72
2023/03/20 08:03:15;;;;;;;6.07;5.50;;;;;;;7.92;100.00;101389.59;6052766;23;20026;-70
2023/03/20 08:05:42;;;;;;;6.05;5.07;;;;;;;8.39;100.00;101443.94;6059578;23;20089;-71
2023/03/20 08:08:12;;;;;;;7.57;5.95;;;;;;;8.50;100.00;101456.72;6055765;23;20218;-71
2023/03/20 08:10:39;;;;;;;5.97;5.45;;;;;;;8.68;100.00;101479.69;6071441;23;20030;-72
2023/03/20 08:13:06;;;;;;;6.68;5.47;;;;;;;8.64;100.00;101464.13;6040336;23;20049;-71
2023/03/20 08:15:32;;;;;;;16.80;7.22;;;;;;;8.79;100.00;101468.88;6010531;23;20372;-71
2023/03/20 08:17:59;;;;;;;7.85;6.50;;;;;;;8.55;100.00;101439.13;6063717;23;20030;-71
2023/03/20 08:20:26;;;;;;;6.07;5.53;;;;;;;8.81;100.00;101460.97;6043479;23;20844;-70
2023/03/20 08:22:52;;;;;;;6.40;5.78;;;;;;;8.70;97.42;101414.19;6068311;23;20758;-71
2023/03/20 08:25:19;;;;;;;5.32;4.82;;;;;;;8.96;95.87;101431.66;6068545;23;20087;-71
2023/03/20 08:27:46;;;;;;;7.47;6.53;;;;;;;9.13;94.09;101429.34;6056481;23;20110;-71
2023/03/20 08:30:13;;;;;;;6.43;5.80;;;;;;;9.26;92.16;101421.94;6066918;23;20038;-72
2023/03/20 08:32:40;;;;;;;6.90;6.30;;;;;;;9.37;90.65;101408.44;6032444;23;20018;-71
2023/03/20 08:35:08;;;;;;;11.70;6.45;;;;;;;9.29;88.92;101373.81;6065534;23;20030;-71
2023/03/20 08:37:47;;;;;;;7.20;6.45;;;;;;;8.84;88.09;101333.50;6056907;23;20742;-72
2023/03/20 08:40:14;;;;;;;6.47;5.75;;;;;;;9.17;87.22;101362.84;6066468;23;20473;-71
2023/03/20 08:42:40;;;;;;;5.97;5.47;;;;;;;9.03;85.67;101343.31;6051679;23;20105;-71
2023/03/20 08:45:07;;;;;;;7.72;5.70;;;;;;;9.13;86.28;101334.22;6025551;23;20758;-72
2023/03/20 08:47:34;;;;;;;7.22;6.60;;;;;;;9.23;84.86;101335.59;6048111;23;20646;-72
2023/03/20 08:50:00;;;;;;;6.43;5.85;;;;;;;9.44;84.20;101339.19;6055415;23;20277;-72
2023/03/20 08:52:27;;;;;;;8.98;5.65;;;;;;;8.85;82.18;101261.91;6067032;23;20033;-72
2023/03/20 08:54:53;;;;;;;7.18;6.10;;;;;;;9.40;83.27;101321.84;6058559;23;20079;-71
2023/03/20 08:57:20;;;;;;;7.13;6.07;;;;;;;9.72;82.93;101332.88;6067223;23;20391;-71
2023/03/20 08:59:46;;;;;;;7.15;5.10;;;;;;;9.42;80.51;101264.19;6058960;23;20030;-72
2023/03/20 09:02:13;;;;;;;9.35;5.85;;;;;;;9.53;80.05;101282.97;6063709;23;20071;-71
2023/03/20 09:04:40;;;;;;;6.70;6.13;;;;;;;9.06;80.92;101218.38;6057095;23;20026;-70
2023/03/20 09:07:06;;;;;;;6.38;5.15;;;;;;;9.57;80.55;101293.25;6028446;23;20406;-71
2023/03/20 09:09:33;;;;;;;7.53;6.20;;;;;;;9.72;81.33;101317.16;6057002;23;20030;-71
2023/03/20 09:11:59;;;;;;;6.10;5.45;;;;;;;9.42;79.70;101258.94;6027310;23;20030;-73
2023/03/20 09:14:27;;;;;;;5.55;5.05;;;;;;;9.39;79.81;101254.69;6005221;23;20027;-71
2023/03/20 09:16:54;;;;;;;5.30;4.90;;;;;;;9.49;79.70;101276.13;6060668;23;20029;-72
2023/03/20 09:19:20;;;;;;;5.82;5.30;;;;;;;9.55;78.48;101265.41;6069207;23;20081;-72
2023/03/20 09:21:47;;;;;;;10.48;6.40;;;;;;;9.81;79.34;101272.25;6057184;23;20018;-71
2023/03/20 09:24:14;;;;;;;6.88;6.32;;;;;;;8.83;78.14;101082.28;6046883;23;20026;-72
2023/03/20 09:26:40;;;;;;;6.82;6.20;;;;;;;9.18;77.24;101159.44;6057205;23;20137;-71
2023/03/20 09:29:06;;;;;;;6.07;5.35;;;;;;;9.94;77.47;101255.13;6073257;23;20046;-71
2023/03/20 09:31:33;;;;;;;7.10;5.40;;;;;;;10.26;77.25;101271.28;6057237;23;20045;-71
2023/03/20 09:34:00;;;;;;;5.30;4.95;;;;;;;10.24;75.97;101230.31;6040656;23;20208;-71
2023/03/20 09:36:26;;;;;;;5.50;5.10;;;;;;;9.78;74.76;101181.50;6032307;23;20053;-71
2023/03/20 09:38:53;;;;;;;6.03;5.47;;;;;;;9.96;75.68;101211.34;6041311;23;20450;-70
2023/03/20 09:41:22;;;;;;;6.45;5.95;;;;;;;10.05;75.52;101204.84;6056004;23;20010;-71
2023/03/20 09:44:03;;;;;;;6.00;5.22;;;;;;;9.64;74.63;101141.03;6033246;23;20026;-71
2023/03/20 09:46:57;;;;;;;6.05;5.53;;;;;;;9.89;74.87;101173.19;6064652;23;20562;-70
2023/03/20 09:49:44;;;;;;;7.88;5.35;;;;;;;10.12;72.30;101150.38;6026738;23;20145;-72
2023/03/20 09:52:31;;;;;;;5.38;4.88;;;;;;;9.42;70.40;101042.38;6065137;23;20109;-71
2023/03/20 09:55:30;;;;;;;6.70;4.32;;;;;;;9.62;70.62;101079.97;6060212;23;20021;-72
2023/03/20 09:58:02;;;;;;;4.90;4.60;;;;;;;10.01;72.42;101152.63;6041683;23;20060;-72
2023/03/20 10:00:32;;;;;;;16.75;4.85;;;;;;;10.10;70.21;101113.75;6033738;23;20047;-70
2023/03/20 10:03:02;;;;;;;4.20;4.00;;;;;;;10.47;69.32;101116.53;6033422;23;20053;-70
2023/03/20 10:05:31;;;;;;;5.80;5.28;;;;;;;10.43;66.88;101044.13;6042687;23;20009;-69
2023/03/20 10:08:00;;;;;;;4.80;4.50;;;;;;;10.35;66.00;100989.38;6058746;23;20063;-71
2023/03/20 10:10:52;;;;;;;13.40;5.30;;;;;;;10.26;65.77;101006.34;6040848;23;20029;-71
2023/03/20 10:13:24;;;;;;;6.70;5.30;;;;;;;9.74;66.52;100970.25;6035218;23;20053;-69
2023/03/20 10:16:02;;;;;;;;;;;;;;;9.76;65.95;100971.03;6065166;23;20030;-70
2023/03/20 10:18:32;;;;;;;7.55;4.78;;;;;;;9.77;66.31;100980.56;6053392;23;19910;-70
2023/03/20 10:21:14;;;;;;;4.30;4.10;;;;;;;9.70;66.32;100970.44;6063761;23;20033;-70
2023/03/20 10:23:48;;;;;;;4.55;4.35;;;;;;;9.72;66.30;100981.69;6022889;23;20129;-70
2023/03/20 10:26:20;;;;;;;4.97;4.68;;;;;;;9.69;66.51;100966.13;6050326;23;20026;-70
2023/03/20 10:28:56;;;;;;;5.17;4.50;;;;;;;9.66;65.15;100934.78;6058212;23;20521;-70
2023/03/20 10:31:50;;;;;;;4.70;4.50;;;;;;;9.93;66.68;100990.38;6054390;23;20413;-70
2023/03/20 10:34:58;;;;;;;4.72;4.53;;;;;;;10.04;65.46;100961.06;6059196;23;20041;-71
2023/03/20 10:37:46;;;;;;;6.18;4.70;;;;;;;10.26;65.23;100972.25;5909882;24;20119;-72
2023/03/20 10:40:25;;;;;;;13.77;4.78;;;;;;;8.86;65.38;100755.00;6024508;23;20033;-71
2023/03/20 10:42:58;;;;;;;5.60;5.20;;;;;;;9.18;64.90;100840.84;6051796;23;20030;-71
2023/03/20 10:45:37;;;;;;;4.90;4.60;;;;;;;9.73;67.30;100979.00;6058071;23;20037;-71
2023/03/20 10:48:13;;;;;;;5.88;5.40;;;;;;;9.98;67.91;100994.50;6051309;23;20030;-74
2023/03/20 10:50:49;;;;;;;5.10;4.70;;;;;;;10.30;66.64;101007.09;6062723;23;20528;-70
2023/03/20 10:53:36;;;;;;;6.30;5.45;;;;;;;9.97;65.92;100963.94;6053076;23;20696;-69
2023/03/20 10:56:12;;;;;;;5.00;4.60;;;;;;;10.02;67.21;100991.72;6060139;23;20587;-70
2023/03/20 10:58:45;;;;;;;5.60;5.20;;;;;;;10.08;67.66;101001.94;6048308;23;20626;-69
2023/03/20 11:01:12;;;;;;;5.30;4.80;;;;;;;9.96;66.90;100956.16;6053730;23;20026;-72
2023/03/20 11:03:40;;;;;;;5.45;5.05;;;;;;;9.69;66.89;100934.66;6021792;23;20058;-69
2023/03/20 11:06:19;;;;;;;4.95;4.60;;;;;;;9.71;67.23;100943.31;6060370;23;20030;-70
2023/03/20 11:08:50;;;;;;;6.97;5.45;;;;;;;9.77;68.45;100961.38;6021681;23;20035;-71
2023/03/20 11:11:25;;;;;;;8.60;5.15;;;;;;;10.10;68.21;101008.84;6028257;23;20025;-72
2023/03/20 11:13:51;;;;;;;5.40;4.72;;;;;;;9.71;69.20;100990.50;6050627;23;20030;-72
2023/03/20 11:16:31;;;;;;;5.30;5.00;;;;;;;9.61;68.99;100984.78;6059345;23;20014;-72
2023/03/20 11:19:07;;;;;;;5.07;4.63;;;;;;;9.76;69.02;100992.00;6052657;23;20050;-73
2023/03/20 11:21:43;;;;;;;4.60;4.38;;;;;;;9.35;69.15;100931.75;6059007;23;20018;-70
2023/03/20 11:24:32;;;;;;;6.05;5.55;;;;;;;9.60;69.61;100988.31;6050166;23;20030;-70
2023/03/20 11:27:14;;;;;;;12.88;4.90;;;;;;;9.74;71.05;101038.38;6061643;23;20021;-72
2023/03/20 11:29:42;;;;;;;;;;;;;;;10.04;70.85;101056.28;6051840;23;20053;-70
2023/03/20 11:32:30;;;;;;;5.72;5.20;;;;;;;9.92;70.37;101000.03;6033944;23;20071;-72
2023/03/20 11:35:10;;;;;;;4.88;4.57;;;;;;;10.23;71.22;101058.97;6053659;23;20016;-71
2023/03/20 11:37:43;;;;;;;4.97;4.55;;;;;;;9.56;71.38;101013.81;6024898;23;20045;-72
2023/03/20 11:40:16;;;;;;;4.22;4.00;;;;;;;9.34;72.93;101029.59;6055044;23;20034;-71
2023/03/20 11:42:56;;;;;;;5.50;5.10;;;;;;;9.03;73.74;101016.06;6061039;23;20089;-72
2023/03/20 11:45:24;;;;;;;5.00;4.70;;;;;;;9.51;75.35;101097.00;6053470;23;20023;-72
2023/03/20 11:47:54;;;;;;;5.15;4.85;;;;;;;9.66;76.98;101133.97;6064907;23;20021;-72